createdAt,value
2019-02-19T00:01:33.349Z,19.60
2019-02-19T00:04:00.644Z,19.62
2019-02-19T00:06:27.986Z,22.13
2019-02-19T00:08:55.626Z,18.42
2019-02-19T00:11:22.920Z,20.40
2019-02-19T00:13:50.238Z,18.37
2019-02-19T00:16:17.632Z,18.42
2019-02-19T00:18:44.948Z,19.70
2019-02-19T00:21:12.290Z,18.85
2019-02-19T00:23:39.679Z,19.07
2019-02-19T00:26:12.246Z,20.48
2019-02-19T00:28:39.669Z,20.25
2019-02-19T00:31:07.060Z,19.73
2019-02-19T00:33:34.276Z,20.08
2019-02-19T00:36:01.559Z,18.75
2019-02-19T00:38:29.196Z,19.30
2019-02-19T00:40:56.474Z,18.80
2019-02-19T00:43:31.038Z,18.37
2019-02-19T00:45:59.274Z,18.42
2019-02-19T00:48:26.672Z,18.12
2019-02-19T00:50:53.996Z,19.48
2019-02-19T00:53:21.396Z,18.45
2019-02-19T00:55:48.697Z,20.08
2019-02-19T00:58:16.091Z,18.48
2019-02-19T01:00:43.413Z,19.02
2019-02-19T01:03:10.724Z,18.42
2019-02-19T01:05:38.032Z,18.30
2019-02-19T01:08:05.370Z,18.87
2019-02-19T01:10:32.796Z,18.42
2019-02-19T01:13:00.114Z,18.32
2019-02-19T01:15:27.398Z,17.90
2019-02-19T01:17:54.814Z,18.80
2019-02-19T01:20:22.144Z,18.15
2019-02-19T01:22:49.460Z,18.60
2019-02-19T01:25:16.858Z,19.05
2019-02-19T01:27:44.214Z,19.80
2019-02-19T01:30:11.545Z,16.30
2019-02-19T01:32:38.872Z,18.37
2019-02-19T01:35:07.120Z,18.62
2019-02-19T01:37:34.836Z,17.60
2019-02-19T01:40:02.189Z,18.27
2019-02-19T01:42:29.480Z,19.15
2019-02-19T01:44:56.766Z,18.40
2019-02-19T01:47:25.056Z,20.35
2019-02-19T01:49:52.463Z,20.90
2019-02-19T01:52:19.783Z,19.17
2019-02-19T01:54:47.080Z,18.90
2019-02-19T01:57:14.354Z,18.42
2019-02-19T01:59:41.790Z,19.87
2019-02-19T02:02:09.108Z,20.50
2019-02-19T02:04:36.420Z,19.55
2019-02-19T02:07:04.590Z,17.70
2019-02-19T02:09:32.012Z,18.82
2019-02-19T02:11:59.220Z,19.35
2019-02-19T02:14:26.591Z,17.67
2019-02-19T02:16:53.908Z,18.62
2019-02-19T02:19:21.233Z,18.67
2019-02-19T02:21:48.500Z,18.37
2019-02-19T02:24:15.809Z,19.48
2019-02-19T02:26:43.089Z,19.10
2019-02-19T02:29:10.403Z,18.92
2019-02-19T02:31:37.774Z,17.87
2019-02-19T02:34:05.050Z,20.05
2019-02-19T02:36:32.484Z,19.37
2019-02-19T02:38:59.896Z,19.52
2019-02-19T02:41:27.177Z,19.65
2019-02-19T02:43:54.589Z,19.30
2019-02-19T02:46:22.399Z,19.07
2019-02-19T02:48:49.823Z,18.25
2019-02-19T02:51:17.154Z,20.62
2019-02-19T02:53:44.570Z,19.02
2019-02-19T02:56:11.867Z,18.35
2019-02-19T02:58:39.171Z,19.32
2019-02-19T03:01:06.543Z,18.70
2019-02-19T03:03:33.827Z,18.77
2019-02-19T03:06:22.936Z,17.67
2019-02-19T03:08:50.213Z,19.10
2019-02-19T03:11:17.542Z,19.15
2019-02-19T03:13:44.921Z,19.55
2019-02-19T03:16:12.322Z,17.90
2019-02-19T03:18:39.711Z,20.20
2019-02-19T03:21:07.006Z,20.40
2019-02-19T03:23:34.414Z,19.02
2019-02-19T03:26:01.753Z,19.37
2019-02-19T03:28:29.062Z,17.62
2019-02-19T03:30:56.356Z,19.17
2019-02-19T03:33:23.628Z,19.65
2019-02-19T03:35:50.915Z,19.30
2019-02-19T03:38:18.203Z,18.80
2019-02-19T03:40:45.562Z,19.02
2019-02-19T03:43:13.266Z,19.37
2019-02-19T03:45:40.677Z,18.23
2019-02-19T03:48:08.366Z,17.17
2019-02-19T03:50:35.673Z,18.17
2019-02-19T03:53:02.992Z,18.02
2019-02-19T03:55:30.722Z,20.10
2019-02-19T03:57:58.005Z,19.73
2019-02-19T04:00:25.443Z,17.48
2019-02-19T04:02:52.625Z,19.00
2019-02-19T04:05:19.935Z,19.10
2019-02-19T04:07:47.200Z,18.73
2019-02-19T04:10:15.022Z,19.42
2019-02-19T04:12:42.326Z,19.87
2019-02-19T04:15:09.643Z,20.95
2019-02-19T04:17:37.023Z,20.60
2019-02-19T04:20:04.451Z,19.55
2019-02-19T04:22:31.806Z,20.05
2019-02-19T04:24:59.127Z,18.77
2019-02-19T04:27:26.439Z,22.05
2019-02-19T04:29:53.808Z,22.05
2019-02-19T04:32:21.149Z,21.68
2019-02-19T04:34:48.419Z,22.52
2019-02-19T04:37:15.758Z,25.68
2019-02-19T04:39:43.330Z,27.52
2019-02-19T04:42:10.640Z,26.97
2019-02-19T04:44:37.969Z,25.90
2019-02-19T04:47:05.416Z,26.95
2019-02-19T04:49:32.815Z,24.77
2019-02-19T04:52:00.109Z,21.85
2019-02-19T04:54:27.451Z,21.68
2019-02-19T04:56:55.747Z,19.20
2019-02-19T04:59:23.075Z,19.95
2019-02-19T05:01:50.464Z,20.20
2019-02-19T05:04:18.249Z,18.85
2019-02-19T05:06:45.705Z,20.90
2019-02-19T05:09:13.110Z,19.57
2019-02-19T05:11:40.326Z,18.95
2019-02-19T05:14:07.710Z,19.82
2019-02-19T05:16:40.806Z,19.05
2019-02-19T05:19:04.256Z,19.05
2019-02-19T05:21:31.677Z,19.50
2019-02-19T05:23:59.093Z,19.23
2019-02-19T05:26:26.491Z,20.55
2019-02-19T05:28:53.799Z,19.95
2019-02-19T05:31:21.109Z,22.27
2019-02-19T05:33:48.340Z,21.02
2019-02-19T05:36:15.801Z,20.40
2019-02-19T05:38:43.223Z,18.55
2019-02-19T05:41:10.555Z,21.05
2019-02-19T05:43:37.963Z,19.42
2019-02-19T05:46:05.408Z,20.02
2019-02-19T05:48:32.779Z,21.82
2019-02-19T05:51:00.098Z,19.82
2019-02-19T05:53:27.518Z,20.80
2019-02-19T05:55:55.199Z,20.80
2019-02-19T05:58:22.512Z,18.90
2019-02-19T06:00:49.864Z,22.00
2019-02-19T06:03:17.263Z,20.50
2019-02-19T06:05:44.673Z,21.95
2019-02-19T06:08:12.083Z,21.48
2019-02-19T06:10:39.382Z,19.60
2019-02-19T06:13:06.681Z,21.27
2019-02-19T06:15:34.029Z,19.92
2019-02-19T06:18:01.419Z,19.87
2019-02-19T06:20:28.772Z,21.20
2019-02-19T06:22:56.180Z,22.90
2019-02-19T06:25:23.516Z,21.25
2019-02-19T06:27:50.904Z,21.80
2019-02-19T06:30:18.205Z,20.85
2019-02-19T06:32:45.619Z,22.58
2019-02-19T06:35:12.956Z,21.70
2019-02-19T06:37:40.270Z,21.60
2019-02-19T06:40:14.953Z,20.45
2019-02-19T06:42:42.276Z,22.80
2019-02-19T06:45:09.691Z,22.10
2019-02-19T06:47:37.096Z,21.90
2019-02-19T06:50:04.553Z,24.67
2019-02-19T06:52:31.852Z,24.72
2019-02-19T06:54:59.160Z,22.93
2019-02-19T06:57:26.759Z,25.08
2019-02-19T06:59:54.082Z,26.12
2019-02-19T07:02:40.996Z,26.12
2019-02-19T07:05:13.301Z,27.13
2019-02-19T07:07:40.728Z,28.07
2019-02-19T07:10:08.122Z,26.00
2019-02-19T07:12:35.429Z,27.37
2019-02-19T07:15:03.045Z,26.50
2019-02-19T07:17:30.334Z,26.50
2019-02-19T07:20:00.840Z,26.50
2019-02-19T07:22:28.559Z,24.50
2019-02-19T07:24:55.878Z,23.62
2019-02-19T07:27:23.199Z,23.25
2019-02-19T07:29:50.512Z,22.77
2019-02-19T07:32:17.832Z,21.70
2019-02-19T07:34:45.274Z,23.42
2019-02-19T07:37:12.552Z,23.20
2019-02-19T07:39:39.907Z,22.75
2019-02-19T07:42:07.235Z,23.98
2019-02-19T07:44:34.696Z,23.80
2019-02-19T07:47:02.107Z,23.00
2019-02-19T07:49:29.553Z,23.55
2019-02-19T07:51:57.201Z,23.52
2019-02-19T07:54:24.518Z,23.30
2019-02-19T07:56:51.772Z,22.85
2019-02-19T07:59:19.147Z,23.85
2019-02-19T08:01:46.488Z,22.90
2019-02-19T08:04:13.903Z,23.55
2019-02-19T08:06:42.044Z,25.82
2019-02-19T08:09:12.473Z,24.27
2019-02-19T08:11:40.049Z,21.90
2019-02-19T08:14:07.511Z,23.98
2019-02-19T08:16:34.955Z,25.10
2019-02-19T08:19:02.312Z,24.20
2019-02-19T08:21:29.655Z,23.30
2019-02-19T08:23:57.089Z,23.42
2019-02-19T08:26:24.884Z,24.20
2019-02-19T08:28:52.315Z,24.90
2019-02-19T08:31:19.727Z,25.75
2019-02-19T08:33:47.136Z,24.72
2019-02-19T08:36:14.483Z,23.80
2019-02-19T08:38:42.999Z,24.87
2019-02-19T08:41:10.564Z,24.18
2019-02-19T08:43:37.846Z,22.73
2019-02-19T08:46:05.238Z,22.98
2019-02-19T08:48:32.543Z,22.70
2019-02-19T08:50:59.891Z,24.52
2019-02-19T08:53:27.178Z,24.07
2019-02-19T08:55:54.495Z,23.02
2019-02-19T08:58:21.865Z,24.35
2019-02-19T09:00:49.265Z,22.13
2019-02-19T09:03:17.025Z,23.80
2019-02-19T09:05:44.636Z,21.30
2019-02-19T09:08:12.027Z,23.18
2019-02-19T09:10:39.436Z,23.52
2019-02-19T09:13:06.856Z,22.90
2019-02-19T09:15:34.049Z,22.70
2019-02-19T09:18:01.382Z,22.00
2019-02-19T09:20:28.813Z,23.12
2019-02-19T09:22:56.123Z,23.38
2019-02-19T09:25:23.449Z,24.90
2019-02-19T09:27:51.086Z,22.10
2019-02-19T09:30:18.515Z,22.13
2019-02-19T09:32:46.298Z,22.73
2019-02-19T09:35:13.636Z,21.95
2019-02-19T09:37:40.940Z,22.10
2019-02-19T09:40:08.513Z,21.15
2019-02-19T09:42:35.876Z,19.67
2019-02-19T09:45:03.974Z,28.00
2019-02-19T09:47:31.812Z,20.27
2019-02-19T09:49:59.127Z,18.17
2019-02-19T09:52:26.435Z,18.55
2019-02-19T09:54:53.739Z,18.98
2019-02-19T09:57:21.545Z,25.40
2019-02-19T09:59:48.926Z,20.85
2019-02-19T10:02:16.277Z,21.42
2019-02-19T10:04:43.608Z,19.98
2019-02-19T10:07:10.912Z,19.65
2019-02-19T10:09:38.304Z,19.55
2019-02-19T10:12:05.712Z,18.27
2019-02-19T10:14:33.051Z,26.42
2019-02-19T10:17:00.429Z,35.75
2019-02-19T10:19:27.829Z,23.92
2019-02-19T10:21:55.167Z,23.98
2019-02-19T10:24:22.978Z,19.45
2019-02-19T10:26:50.377Z,20.20
2019-02-19T10:29:18.145Z,18.57
2019-02-19T10:31:45.440Z,18.73
2019-02-19T10:34:12.773Z,17.25
2019-02-19T10:36:40.179Z,16.35
2019-02-19T10:39:10.988Z,25.05
2019-02-19T10:41:38.375Z,19.02
2019-02-19T10:44:05.822Z,16.20
2019-02-19T10:46:33.034Z,14.83
2019-02-19T10:49:00.442Z,15.50
2019-02-19T10:51:27.754Z,14.95
2019-02-19T10:53:55.090Z,13.70
2019-02-19T10:56:22.402Z,14.90
2019-02-19T10:58:50.094Z,13.78
2019-02-19T11:01:17.409Z,16.42
2019-02-19T11:03:45.184Z,17.55
2019-02-19T11:06:12.490Z,18.25
2019-02-19T11:08:39.824Z,17.65
2019-02-19T11:11:07.215Z,15.98
2019-02-19T11:13:34.601Z,20.08
2019-02-19T11:16:03.369Z,19.65
2019-02-19T11:18:31.368Z,19.80
2019-02-19T11:20:58.746Z,18.90
2019-02-19T11:23:26.029Z,18.32
2019-02-19T11:25:53.398Z,15.98
2019-02-19T11:28:20.777Z,16.93
2019-02-19T11:30:48.074Z,16.50
2019-02-19T11:33:15.434Z,14.85
2019-02-19T11:35:43.272Z,16.17
2019-02-19T11:38:10.694Z,14.58
2019-02-19T11:40:38.081Z,15.35
2019-02-19T11:43:05.493Z,12.40
2019-02-19T11:45:32.816Z,13.50
2019-02-19T11:48:00.160Z,13.18
2019-02-19T11:50:27.448Z,12.63
2019-02-19T11:52:54.782Z,13.40
2019-02-19T11:55:22.208Z,14.90
2019-02-19T11:57:49.905Z,18.62
2019-02-19T12:00:20.918Z,19.73
2019-02-19T12:02:48.331Z,17.50
2019-02-19T12:05:15.754Z,19.00
2019-02-19T12:07:43.460Z,17.85
2019-02-19T12:10:12.043Z,16.77
2019-02-19T12:12:39.827Z,14.03
2019-02-19T12:15:07.935Z,13.20
2019-02-19T12:17:35.542Z,13.30
2019-02-19T12:20:02.949Z,13.03
2019-02-19T12:22:30.332Z,11.70
2019-02-19T12:24:57.736Z,10.90
2019-02-19T12:27:25.032Z,11.30
2019-02-19T12:29:52.480Z,13.03
2019-02-19T12:32:20.094Z,12.57
2019-02-19T12:34:47.586Z,13.30
2019-02-19T12:37:15.364Z,12.53
2019-02-19T12:39:43.129Z,12.30
2019-02-19T12:42:10.594Z,12.43
2019-02-19T12:44:38.000Z,11.60
2019-02-19T12:47:05.319Z,11.70
2019-02-19T12:49:33.088Z,11.07
2019-02-19T12:52:00.598Z,11.23
2019-02-19T12:54:28.045Z,11.90
2019-02-19T12:56:55.446Z,12.07
2019-02-19T12:59:23.058Z,12.10
2019-02-19T13:01:50.479Z,11.07
2019-02-19T13:04:17.850Z,11.43
2019-02-19T13:06:45.253Z,11.33
2019-02-19T13:09:12.623Z,11.13
2019-02-19T13:11:39.993Z,11.30
2019-02-19T13:14:07.345Z,10.20
2019-02-19T13:16:34.721Z,10.70
2019-02-19T13:19:03.741Z,10.20
2019-02-19T13:21:31.444Z,10.93
2019-02-19T13:23:58.837Z,9.27
2019-02-19T13:26:26.289Z,10.00
2019-02-19T13:28:53.616Z,9.60
2019-02-19T13:31:21.096Z,10.17
2019-02-19T13:33:48.461Z,10.20
2019-02-19T13:36:15.916Z,11.07
2019-02-19T13:38:43.867Z,24.73
2019-02-19T13:41:11.338Z,19.40
2019-02-19T13:43:38.722Z,9.43
2019-02-19T13:46:06.122Z,14.70
2019-02-19T13:48:33.560Z,8.33
2019-02-19T13:51:00.909Z,9.20
2019-02-19T13:53:32.286Z,8.87
2019-02-19T13:56:01.197Z,10.23
2019-02-19T13:58:28.922Z,8.50
2019-02-19T14:00:56.322Z,12.03
2019-02-19T14:03:23.699Z,9.53
2019-02-19T14:05:51.157Z,10.47
2019-02-19T14:08:18.542Z,30.73
2019-02-19T14:10:46.013Z,8.70
2019-02-19T14:13:13.432Z,12.47
2019-02-19T14:16:15.700Z,8.10
2019-02-19T14:18:48.605Z,9.90
2019-02-19T14:21:34.227Z,8.87
2019-02-19T14:24:20.038Z,8.90
2019-02-19T14:27:05.813Z,9.60
2019-02-19T14:29:52.802Z,7.70
2019-02-19T14:32:38.315Z,9.20
2019-02-19T14:35:24.574Z,9.60
2019-02-19T14:38:17.856Z,16.70
2019-02-19T14:41:04.699Z,10.80
2019-02-19T14:44:06.655Z,10.08
2019-02-19T14:46:45.180Z,8.73
2019-02-19T14:49:37.949Z,10.10
2019-02-19T14:52:23.213Z,7.37
2019-02-19T14:55:12.693Z,8.40
2019-02-19T14:58:08.680Z,6.33
2019-02-19T15:01:01.198Z,8.83
2019-02-19T15:03:46.775Z,8.73
2019-02-19T15:06:40.274Z,9.30
2019-02-19T15:09:17.667Z,7.70
2019-02-19T15:12:07.121Z,8.80
2019-02-19T15:14:53.000Z,7.33
2019-02-19T15:17:37.831Z,8.43
2019-02-19T15:20:39.720Z,8.70
2019-02-19T15:23:38.801Z,7.80
2019-02-19T15:26:34.511Z,9.35
2019-02-19T15:29:11.891Z,9.20
2019-02-19T15:31:57.660Z,7.22
2019-02-19T15:34:59.387Z,9.80
2019-02-19T15:37:35.229Z,6.37
2019-02-19T15:40:28.397Z,13.30
2019-02-19T15:43:13.829Z,8.95
2019-02-19T15:46:03.843Z,9.03
2019-02-19T15:48:45.640Z,8.75
2019-02-19T15:51:28.133Z,8.08
2019-02-19T15:54:06.911Z,9.50
2019-02-19T15:56:52.220Z,10.45
2019-02-19T15:59:42.111Z,10.13
2019-02-19T16:02:23.085Z,10.25
2019-02-19T16:05:19.374Z,8.93
2019-02-19T16:08:09.393Z,6.62
2019-02-19T16:10:48.881Z,7.25
2019-02-19T16:13:41.767Z,10.15
2019-02-19T16:16:40.946Z,8.58
2019-02-19T16:19:22.615Z,9.13
2019-02-19T16:22:15.365Z,8.30
2019-02-19T16:24:59.909Z,6.42
2019-02-19T16:27:40.101Z,8.75
2019-02-19T16:30:43.222Z,10.35
2019-02-19T16:33:24.272Z,5.45
2019-02-19T16:36:23.176Z,8.45
2019-02-19T16:39:11.832Z,11.00
2019-02-19T16:41:46.827Z,9.45
2019-02-19T16:44:49.039Z,10.18
2019-02-19T16:47:23.882Z,11.60
2019-02-19T16:50:07.340Z,8.00
2019-02-19T16:53:07.312Z,9.40
2019-02-19T16:55:57.399Z,7.05
2019-02-19T16:58:41.453Z,10.35
2019-02-19T17:01:37.570Z,8.85
2019-02-19T17:04:27.297Z,10.25
2019-02-19T17:07:12.933Z,7.95
2019-02-19T17:09:48.699Z,11.60
2019-02-19T17:12:34.591Z,8.10
2019-02-19T17:15:16.942Z,9.05
2019-02-19T17:18:03.952Z,10.50
2019-02-19T17:20:57.006Z,8.85
2019-02-19T17:23:43.948Z,7.15
2019-02-19T17:26:30.493Z,7.95
2019-02-19T17:29:05.050Z,10.88
2019-02-19T17:32:01.025Z,8.48
2019-02-19T17:34:47.871Z,8.75
2019-02-19T17:37:26.183Z,10.25
2019-02-19T17:40:02.766Z,11.30
2019-02-19T17:42:52.858Z,8.85
2019-02-19T17:45:39.786Z,9.90
2019-02-19T17:48:21.197Z,8.83
2019-02-19T17:50:57.014Z,10.28
2019-02-19T17:53:34.445Z,10.30
2019-02-19T17:56:15.340Z,8.55
2019-02-19T17:59:02.319Z,11.28
2019-02-19T18:01:48.018Z,12.55
2019-02-19T18:04:20.469Z,10.45
2019-02-19T18:07:09.612Z,11.05
2019-02-19T18:09:46.557Z,7.95
2019-02-19T18:12:22.998Z,10.78
2019-02-19T18:15:12.240Z,9.38
2019-02-19T18:18:08.425Z,8.85
2019-02-19T18:20:35.784Z,12.03
2019-02-19T18:23:03.275Z,9.13
2019-02-19T18:25:30.665Z,8.70
2019-02-19T18:27:58.161Z,8.63
2019-02-19T18:30:25.652Z,7.60
2019-02-19T18:32:53.212Z,9.43
2019-02-19T18:35:20.665Z,9.50
2019-02-19T18:37:48.554Z,9.80
2019-02-19T18:40:16.632Z,10.28
2019-02-19T18:42:44.133Z,13.03
2019-02-19T18:45:11.552Z,9.73
2019-02-19T18:47:39.114Z,11.80
2019-02-19T18:50:07.109Z,10.08
2019-02-19T18:52:34.972Z,12.10
2019-02-19T18:55:02.906Z,11.35
2019-02-19T18:57:30.394Z,11.03
2019-02-19T18:59:58.005Z,10.70
2019-02-19T19:02:25.532Z,10.20
2019-02-19T19:04:53.194Z,10.45
2019-02-19T19:07:21.020Z,9.23
2019-02-19T19:09:48.432Z,14.60
2019-02-19T19:12:15.910Z,10.43
2019-02-19T19:14:43.394Z,12.43
2019-02-19T19:17:10.905Z,9.65
